Time;durP1;ratioP1;P1;durP2;ratioP2;P2;SDS_P1;SDS_P2;PMS_P1;PMS_P2;Temp;Humidity;BMP_temperature;BMP_pressure;BME280_temperature;BME280_humidity;BME280_pressure;Samples;Min_cycle;Max_cycle;Signal;HPM_P1;HPM_P2
2020/12/06 00:02:14;;;;;;;7.28;4.58;;;;;;;7.77;70.25;96156.20;1734379;82;21506;-85
2020/12/06 00:04:41;;;;;;;8.00;5.05;;;;;;;7.85;70.01;96151.66;1734391;83;21308;-85
2020/12/06 00:07:08;;;;;;;7.95;5.30;;;;;;;7.93;69.83;96155.85;1733899;82;21150;-85
2020/12/06 00:09:35;;;;;;;8.08;4.95;;;;;;;8.00;69.65;96148.41;1728939;82;21119;-85
2020/12/06 00:12:01;;;;;;;11.08;5.35;;;;;;;8.11;69.20;96144.40;1728860;83;21154;-85
2020/12/06 00:14:28;;;;;;;7.40;4.83;;;;;;;8.07;69.13;96150.77;1728813;83;21146;-85
2020/12/06 00:16:55;;;;;;;7.30;4.20;;;;;;;8.05;69.26;96144.97;1728815;83;21142;-85
2020/12/06 00:19:22;;;;;;;8.55;4.90;;;;;;;8.06;69.14;96154.47;1728934;82;21497;-85
2020/12/06 00:21:49;;;;;;;7.47;4.90;;;;;;;7.98;69.17;96155.03;1728778;83;21126;-85
2020/12/06 00:24:16;;;;;;;6.78;4.92;;;;;;;7.98;69.30;96164.27;1728843;83;21138;-85
2020/12/06 00:26:43;;;;;;;8.73;5.08;;;;;;;8.01;69.37;96158.44;1728887;83;21510;-85
2020/12/06 00:29:11;;;;;;;8.55;5.15;;;;;;;7.95;69.34;96156.89;1728854;83;21166;-85
2020/12/06 00:31:38;;;;;;;6.40;4.40;;;;;;;7.90;69.37;96155.61;1728988;82;21146;-85
2020/12/06 00:34:05;;;;;;;9.53;5.17;;;;;;;7.83;69.31;96148.51;1729079;83;21138;-85
2020/12/06 00:36:32;;;;;;;7.75;5.22;;;;;;;7.72;69.63;96158.31;1728848;83;21162;-85
2020/12/06 00:38:59;;;;;;;8.00;5.00;;;;;;;7.67;69.79;96157.02;1729046;83;21134;-85
2020/12/06 00:41:26;;;;;;;8.78;5.65;;;;;;;7.67;70.11;96160.45;1728787;82;21180;-85
2020/12/06 00:43:53;;;;;;;9.20;5.60;;;;;;;7.73;69.79;96158.04;1728827;83;21237;-85
2020/12/06 00:46:23;;;;;;;9.88;5.28;;;;;;;7.54;69.67;96165.52;1728892;83;21494;-85
2020/12/06 00:48:52;;;;;;;7.83;4.67;;;;;;;7.42;69.92;96161.86;1729090;83;21123;-85
2020/12/06 00:51:19;;;;;;;7.87;5.10;;;;;;;7.39;70.39;96164.50;1728844;82;21178;-85
2020/12/06 00:53:46;;;;;;;8.48;4.92;;;;;;;7.43;70.59;96163.43;1728849;83;21543;-85
2020/12/06 00:56:20;;;;;;;9.88;5.50;;;;;;;7.48;70.80;96160.01;1728972;83;21139;-85
2020/12/06 00:58:49;;;;;;;8.60;5.55;;;;;;;7.60;71.06;96154.69;1728594;83;21104;-85
2020/12/06 01:01:18;;;;;;;7.97;4.60;;;;;;;7.77;71.04;96158.84;1728864;82;21511;-85
2020/12/06 01:03:47;;;;;;;8.33;4.92;;;;;;;7.97;70.63;96154.77;1728991;83;21142;-85
2020/12/06 01:06:17;;;;;;;8.93;5.30;;;;;;;8.02;70.32;96165.29;1728775;83;21158;-85
2020/12/06 01:08:46;;;;;;;9.30;5.95;;;;;;;8.00;70.32;96151.05;1728917;83;21195;-85
2020/12/06 01:11:16;;;;;;;8.15;5.00;;;;;;;7.97;70.33;96152.92;1728782;82;21198;-85
2020/12/06 01:13:43;;;;;;;7.72;4.80;;;;;;;7.95;70.60;96155.58;1728812;83;21115;-85
2020/12/06 01:16:14;;;;;;;7.90;4.90;;;;;;;8.01;70.64;96145.23;1728863;83;22275;-85
2020/12/06 01:18:41;;;;;;;8.15;4.80;;;;;;;7.99;70.61;96145.52;1729136;83;21134;-85
2020/12/06 01:21:12;;;;;;;8.13;5.50;;;;;;;7.96;70.55;96146.06;1728759;82;21143;-85
2020/12/06 01:23:40;;;;;;;8.00;4.97;;;;;;;7.87;70.52;96153.49;1728975;83;21158;-85
2020/12/06 01:26:13;;;;;;;9.40;5.62;;;;;;;7.76;70.44;96145.39;1728798;83;21131;-85
2020/12/06 01:28:41;;;;;;;8.45;5.55;;;;;;;7.62;70.54;96143.87;1728955;83;21104;-85
2020/12/06 01:31:08;;;;;;;9.20;5.12;;;;;;;7.53;70.83;96148.90;1728821;82;21146;-85
2020/12/06 01:33:36;;;;;;;7.17;4.55;;;;;;;7.49;71.07;96149.19;1728720;83;21135;-85
2020/12/06 01:36:03;;;;;;;8.03;4.75;;;;;;;7.47;71.24;96150.52;1728822;83;21134;-85
2020/12/06 01:38:30;;;;;;;7.37;4.53;;;;;;;7.47;71.29;96149.98;1728790;83;21126;-85
2020/12/06 01:40:57;;;;;;;8.55;5.87;;;;;;;7.50;71.61;96156.57;1728788;82;21162;-85
2020/12/06 01:43:25;;;;;;;8.78;5.60;;;;;;;7.61;71.78;96157.59;1728775;83;21151;-85
2020/12/06 01:45:52;;;;;;;9.38;5.47;;;;;;;7.65;71.71;96153.34;1728819;83;21479;-85
2020/12/06 01:48:20;;;;;;;8.20;5.33;;;;;;;7.67;71.70;96156.50;1728784;83;21515;-85
2020/12/06 01:50:47;;;;;;;6.95;4.87;;;;;;;7.69;71.72;96157.54;1728774;82;21147;-85
2020/12/06 01:53:14;;;;;;;7.10;4.10;;;;;;;7.71;71.73;96164.12;1728827;83;21155;-85
2020/12/06 01:55:42;;;;;;;7.17;4.95;;;;;;;7.70;71.56;96159.91;1728847;83;21147;-85
2020/12/06 01:58:10;;;;;;;8.98;5.85;;;;;;;7.67;71.67;96157.81;1728797;83;21155;-85
2020/12/06 02:00:38;;;;;;;7.37;4.75;;;;;;;7.68;71.71;96158.60;1728781;82;21155;-85
2020/12/06 02:03:06;;;;;;;8.83;5.47;;;;;;;7.73;71.82;96154.08;1728829;83;21151;-85
2020/12/06 02:05:34;;;;;;;10.32;5.62;;;;;;;7.75;71.76;96155.16;1728749;83;21126;-85
2020/12/06 02:08:03;;;;;;;10.13;5.22;;;;;;;7.84;71.75;96158.79;1729537;83;21134;-85
2020/12/06 02:10:31;;;;;;;9.83;5.85;;;;;;;7.91;71.60;96156.66;1734333;81;21475;-85
2020/12/06 02:12:59;;;;;;;7.08;4.85;;;;;;;8.00;71.31;96156.86;1734255;83;21155;-86
2020/12/06 02:15:26;;;;;;;7.25;4.55;;;;;;;8.03;71.04;96151.06;1734271;82;21532;-85
2020/12/06 02:17:53;;;;;;;7.90;4.60;;;;;;;8.13;70.91;96150.98;1734220;83;21143;-85
2020/12/06 02:20:20;;;;;;;7.37;5.08;;;;;;;8.22;70.70;96154.63;1734310;81;21288;-85
2020/12/06 02:22:47;;;;;;;7.65;5.53;;;;;;;8.40;70.56;96161.14;1734209;83;21139;-85
2020/12/06 02:25:15;;;;;;;8.78;5.00;;;;;;;8.40;70.51;96147.14;1734211;83;21147;-85
2020/12/06 02:27:42;;;;;;;10.18;5.55;;;;;;;8.35;70.34;96149.30;1734230;82;21142;-85
2020/12/06 02:30:10;;;;;;;7.55;5.47;;;;;;;8.42;70.43;96149.76;1734235;81;21192;-85
2020/12/06 02:32:37;;;;;;;7.67;4.22;;;;;;;8.46;70.32;96148.17;1734130;82;21146;-85
2020/12/06 02:35:05;;;;;;;8.23;4.80;;;;;;;8.44;70.22;96144.20;1734411;82;21486;-85
2020/12/06 02:37:33;;;;;;;8.35;4.95;;;;;;;8.35;70.13;96144.02;1734256;83;21637;-85
2020/12/06 02:40:00;;;;;;;7.60;5.22;;;;;;;8.36;70.23;96150.88;1734284;81;21705;-85
2020/12/06 02:42:27;;;;;;;6.17;4.40;;;;;;;8.30;70.23;96146.14;1734229;82;21648;-85
2020/12/06 02:44:54;;;;;;;8.35;5.15;;;;;;;8.23;70.22;96152.24;1734267;83;21505;-85
2020/12/06 02:47:20;;;;;;;10.48;5.75;;;;;;;8.23;70.36;96148.28;1734142;82;21146;-85
2020/12/06 02:49:47;;;;;;;8.55;4.65;;;;;;;8.23;70.43;96150.92;1734281;81;21146;-85
2020/12/06 02:52:14;;;;;;;7.03;4.67;;;;;;;8.18;70.38;96153.61;1734183;82;21138;-85
2020/12/06 02:54:41;;;;;;;9.83;6.05;;;;;;;8.13;70.44;96152.30;1734328;82;21191;-85
2020/12/06 02:57:08;;;;;;;10.43;6.35;;;;;;;8.14;70.49;96153.88;1734182;83;21131;-85
2020/12/06 02:59:35;;;;;;;8.75;5.92;;;;;;;8.16;70.43;96154.92;1744790;81;21095;-85
2020/12/06 03:02:03;;;;;;;9.15;5.87;;;;;;;8.09;70.44;96149.95;1764400;81;21095;-85
2020/12/06 03:04:29;;;;;;;7.75;5.10;;;;;;;8.14;70.60;96152.55;1764478;81;21507;-85
2020/12/06 03:06:56;;;;;;;7.70;4.78;;;;;;;8.15;70.58;96152.81;1764460;81;21151;-85
2020/12/06 03:09:23;;;;;;;6.58;4.28;;;;;;;8.16;70.65;96159.66;1764279;81;21158;-85
2020/12/06 03:11:50;;;;;;;8.28;5.45;;;;;;;8.13;70.52;96162.07;1758528;81;21284;-85
2020/12/06 03:14:17;;;;;;;8.08;5.20;;;;;;;8.15;70.70;96163.91;1734098;82;21119;-85
2020/12/06 03:16:44;;;;;;;7.90;4.55;;;;;;;8.11;70.61;96168.16;1734232;83;21260;-85
2020/12/06 03:19:11;;;;;;;9.88;5.90;;;;;;;8.07;70.73;96163.96;1734250;83;21152;-85
2020/12/06 03:21:38;;;;;;;6.80;4.45;;;;;;;8.07;70.74;96165.28;1734272;81;21139;-85
2020/12/06 03:24:05;;;;;;;8.18;4.45;;;;;;;8.04;70.73;96160.55;1734188;82;21106;-86
2020/12/06 03:26:32;;;;;;;9.05;5.50;;;;;;;7.99;70.84;96147.36;1734209;83;21139;-85
2020/12/06 03:28:59;;;;;;;7.75;5.53;;;;;;;8.01;70.75;96153.95;1734380;83;21103;-85
2020/12/06 03:31:26;;;;;;;7.85;5.42;;;;;;;7.96;70.73;96157.94;1734220;81;21296;-85
2020/12/06 03:33:53;;;;;;;9.53;5.87;;;;;;;7.97;70.92;96156.09;1734240;82;21209;-85
2020/12/06 03:36:19;;;;;;;8.95;6.28;;;;;;;8.04;70.96;96157.91;1734407;83;21276;-85
2020/12/06 03:38:46;;;;;;;10.30;6.53;;;;;;;7.99;70.63;96151.33;1734162;83;21158;-85
2020/12/06 03:41:13;;;;;;;10.58;5.95;;;;;;;7.93;70.57;96153.22;1734346;81;21293;-85
2020/12/06 03:43:41;;;;;;;10.32;6.40;;;;;;;7.82;70.61;96154.31;1734068;83;21143;-85
2020/12/06 03:46:08;;;;;;;8.33;5.72;;;;;;;7.78;70.80;96162.52;1734212;82;21107;-85
2020/12/06 03:48:34;;;;;;;8.68;5.50;;;;;;;7.67;70.63;96165.73;1734156;83;21499;-85
2020/12/06 03:51:01;;;;;;;8.38;5.12;;;;;;;7.51;70.61;96167.37;1734169;81;21183;-85
2020/12/06 03:53:28;;;;;;;8.30;5.30;;;;;;;7.37;70.71;96160.56;1734180;83;21527;-85
2020/12/06 03:55:55;;;;;;;6.25;4.70;;;;;;;7.24;71.01;96160.59;1734253;83;21505;-85
2020/12/06 03:58:22;;;;;;;8.30;5.17;;;;;;;7.19;71.38;96169.05;1734111;82;21182;-85
2020/12/06 04:00:49;;;;;;;7.37;4.35;;;;;;;7.06;71.33;96161.95;1734251;81;21184;-85
2020/12/06 04:03:16;;;;;;;8.78;5.30;;;;;;;6.82;71.52;96162.23;1734149;83;21115;-85
2020/12/06 04:05:43;;;;;;;8.90;5.65;;;;;;;6.79;71.91;96169.36;1734418;82;21099;-85
2020/12/06 04:08:10;;;;;;;7.55;4.78;;;;;;;6.74;71.92;96161.44;1734391;82;21173;-85
2020/12/06 04:10:36;;;;;;;8.95;5.37;;;;;;;6.64;72.17;96158.30;1734243;81;21150;-85
2020/12/06 04:13:04;;;;;;;9.13;5.45;;;;;;;6.55;72.05;96163.30;1734001;83;21527;-85
2020/12/06 04:15:30;;;;;;;8.03;4.62;;;;;;;6.41;71.99;96168.81;1734171;83;21103;-85
2020/12/06 04:17:57;;;;;;;5.90;3.65;;;;;;;6.06;71.77;96171.41;1734216;83;21502;-85
2020/12/06 04:20:24;;;;;;;8.38;4.80;;;;;;;5.83;72.96;96168.14;1734358;81;21172;-85
2020/12/06 04:22:51;;;;;;;8.05;5.00;;;;;;;5.87;74.06;96163.15;1734271;83;21629;-85
2020/12/06 04:25:18;;;;;;;9.13;5.22;;;;;;;5.94;74.65;96167.69;1734107;82;21493;-85
2020/12/06 04:27:45;;;;;;;6.62;4.83;;;;;;;5.86;73.28;96167.63;1734331;82;21146;-85
2020/12/06 04:30:12;;;;;;;8.38;4.58;;;;;;;5.77;75.01;96167.87;1734267;81;21166;-85
2020/12/06 04:32:39;;;;;;;9.40;5.78;;;;;;;6.05;74.57;96171.91;1734321;82;21147;-85
2020/12/06 04:35:06;;;;;;;7.87;5.50;;;;;;;5.78;73.83;96173.40;1734250;83;21126;-85
2020/12/06 04:37:34;;;;;;;7.37;5.10;;;;;;;5.69;74.41;96174.14;1734333;82;21272;-85
2020/12/06 04:40:01;;;;;;;7.33;4.72;;;;;;;5.82;74.92;96180.23;1734371;81;21280;-85
2020/12/06 04:42:28;;;;;;;7.20;4.90;;;;;;;5.83;74.53;96183.92;1734244;82;21134;-85
2020/12/06 04:44:55;;;;;;;5.35;3.80;;;;;;;5.69;74.59;96177.56;1734234;83;21126;-85
2020/12/06 04:47:43;;;;;;;8.55;4.62;;;;;;;5.68;75.66;96179.14;1734598;82;21146;-85
2020/12/06 04:50:15;;;;;;;8.60;5.05;;;;;;;5.98;76.16;96175.84;1733941;81;21139;-85
2020/12/06 04:52:44;;;;;;;8.15;5.12;;;;;;;6.27;76.03;96174.33;1734306;82;21135;-85
2020/12/06 04:55:13;;;;;;;6.00;4.15;;;;;;;6.47;75.81;96176.97;1734332;83;21328;-85
2020/12/06 04:57:40;;;;;;;7.58;4.70;;;;;;;6.33;74.40;96183.01;1734282;83;21150;-85
2020/12/06 05:00:10;;;;;;;8.30;5.08;;;;;;;6.13;74.60;96180.62;1707566;83;21116;-85
2020/12/06 05:02:41;;;;;;;9.68;4.47;;;;;;;6.16;75.27;96178.77;1734460;82;21138;-85
2020/12/06 05:05:08;;;;;;;10.08;6.80;;;;;;;6.26;75.08;96183.27;1734236;82;21095;-85
2020/12/06 05:07:37;;;;;;;13.90;8.85;;;;;;;6.12;74.59;96188.77;1734314;82;21245;-85
2020/12/06 05:10:05;;;;;;;10.15;6.83;;;;;;;5.98;74.77;96189.79;1734259;81;21306;-85
2020/12/06 05:12:32;;;;;;;7.72;5.15;;;;;;;5.87;74.70;96187.61;1734263;83;21313;-85
2020/12/06 05:14:59;;;;;;;6.30;4.72;;;;;;;5.85;75.07;96183.66;1734331;82;21304;-85
2020/12/06 05:17:26;;;;;;;7.97;5.60;;;;;;;5.82;75.04;96181.56;1734370;82;21292;-85
2020/12/06 05:19:53;;;;;;;8.20;5.20;;;;;;;5.78;74.91;96191.02;1707683;83;21524;-85
2020/12/06 05:22:26;;;;;;;11.05;6.47;;;;;;;5.73;75.22;96190.45;1734377;82;21498;-85
2020/12/06 05:24:53;;;;;;;9.58;5.97;;;;;;;5.73;75.30;96190.98;1734309;82;21654;-85
2020/12/06 05:27:22;;;;;;;9.75;6.20;;;;;;;5.65;75.11;96194.39;1734213;82;21130;-85
2020/12/06 05:29:48;;;;;;;9.13;6.30;;;;;;;5.56;75.50;96185.92;1734241;81;21521;-85
2020/12/06 05:32:15;;;;;;;11.20;7.42;;;;;;;5.44;75.82;96183.49;1734276;83;21261;-85
2020/12/06 05:34:42;;;;;;;12.28;7.08;;;;;;;5.42;76.02;96186.91;1734179;82;21146;-85
2020/12/06 05:37:09;;;;;;;12.33;7.15;;;;;;;5.33;75.70;96194.47;1734276;82;21126;-85
2020/12/06 05:39:36;;;;;;;10.00;5.55;;;;;;;5.23;76.24;96191.80;1734149;81;21131;-85
2020/12/06 05:42:03;;;;;;;8.05;5.08;;;;;;;5.20;76.55;96193.60;1734310;83;21497;-85
2020/12/06 05:44:31;;;;;;;7.17;4.58;;;;;;;5.24;76.75;96188.13;1707571;83;21146;-85
2020/12/06 05:47:00;;;;;;;7.00;4.95;;;;;;;5.23;76.46;96195.75;1734276;83;21158;-85
2020/12/06 05:49:27;;;;;;;7.70;4.83;;;;;;;5.21;76.47;96195.73;1734274;81;21629;-85
2020/12/06 05:51:54;;;;;;;9.53;5.80;;;;;;;5.26;76.60;96200.48;1734259;83;21474;-85
2020/12/06 05:54:25;;;;;;;10.05;5.90;;;;;;;5.30;77.04;96196.30;1734111;83;21186;-85
2020/12/06 05:56:54;;;;;;;7.95;5.35;;;;;;;5.38;76.93;96192.41;1734258;82;21293;-84
2020/12/06 05:59:23;;;;;;;11.05;5.42;;;;;;;5.38;76.84;96200.82;1734181;81;21182;-85
2020/12/06 06:01:54;;;;;;;7.65;4.45;;;;;;;5.38;76.88;96201.61;1707714;83;21491;-85
2020/12/06 06:04:22;;;;;;;7.45;4.47;;;;;;;5.29;76.77;96196.03;1734191;83;21482;-85
2020/12/06 06:06:52;;;;;;;9.90;5.60;;;;;;;5.32;77.17;96203.92;1734282;83;21301;-85
2020/12/06 06:09:20;;;;;;;8.55;6.00;;;;;;;5.30;76.95;96205.50;1732751;82;21170;-85
2020/12/06 06:12:07;;;;;;;7.92;5.17;;;;;;;5.29;77.21;96201.29;1728790;83;21463;-84
2020/12/06 06:14:37;;;;;;;7.83;5.42;;;;;;;5.39;77.44;96200.56;1726617;83;21150;-85
2020/12/06 06:17:05;;;;;;;7.62;4.92;;;;;;;5.41;77.34;96202.41;1728927;83;21497;-85
2020/12/06 06:19:32;;;;;;;7.22;4.22;;;;;;;5.26;76.94;96212.31;1728745;82;21178;-84
2020/12/06 06:22:00;;;;;;;7.08;4.25;;;;;;;5.03;77.62;96216.09;1728814;83;21503;-85
2020/12/06 06:24:28;;;;;;;6.85;4.70;;;;;;;5.06;78.37;96208.23;1728637;83;21305;-85
2020/12/06 06:26:57;;;;;;;9.25;6.22;;;;;;;5.23;78.99;96212.83;1728809;83;21629;-85
2020/12/06 06:29:26;;;;;;;11.33;6.55;;;;;;;5.51;78.31;96214.83;1728723;82;21107;-85
2020/12/06 06:31:55;;;;;;;7.62;4.40;;;;;;;5.18;77.13;96218.03;1728725;83;21613;-85
2020/12/06 06:34:29;;;;;;;8.50;5.25;;;;;;;5.12;77.86;96217.74;1728920;83;21221;-85
2020/12/06 06:36:58;;;;;;;8.38;5.10;;;;;;;5.35;78.72;96218.69;1728737;83;21261;-85
2020/12/06 06:39:27;;;;;;;7.95;5.47;;;;;;;5.64;79.11;96222.26;1728754;82;21137;-84
2020/12/06 06:42:04;;;;;;;9.23;5.05;;;;;;;5.91;78.44;96223.42;1728722;83;21143;-85
2020/12/06 06:44:31;;;;;;;9.20;5.83;;;;;;;5.68;77.47;96216.74;1728711;83;21491;-84
2020/12/06 06:47:05;;;;;;;9.90;5.90;;;;;;;5.62;77.30;96228.27;1728701;83;21170;-85
2020/12/06 06:49:55;;;;;;;8.65;5.28;;;;;;;5.57;77.48;96222.47;1729028;82;21173;-85
2020/12/06 06:52:27;;;;;;;8.40;5.75;;;;;;;5.60;77.65;96230.36;1743643;82;21203;-84
2020/12/06 06:54:58;;;;;;;6.83;4.42;;;;;;;5.70;77.83;96233.05;1732356;82;21529;-85
2020/12/06 06:57:32;;;;;;;;;;;;;;;5.82;77.94;96232.33;1731277;83;21274;-85
2020/12/06 07:00:01;;;;;;;7.03;4.67;;;;;;;6.20;78.31;96233.02;1728664;82;20420;-85
2020/12/06 07:02:36;;;;;;;8.13;5.42;;;;;;;6.93;78.43;96236.28;1728841;83;21111;-85
2020/12/06 07:05:13;;;;;;;8.98;5.70;;;;;;;7.57;77.55;96236.19;1728894;83;21487;-85
2020/12/06 07:07:51;;;;;;;7.50;4.95;;;;;;;8.07;76.18;96226.53;1724643;83;21131;-85
2020/12/06 07:10:25;;;;;;;8.25;5.80;;;;;;;8.52;75.57;96236.09;1731457;81;21503;-85
2020/12/06 07:12:58;;;;;;;11.05;7.03;;;;;;;9.04;75.02;96240.75;1734046;83;21142;-85
2020/12/06 07:15:28;;;;;;;12.13;7.65;;;;;;;9.39;73.76;96237.52;1734114;83;21096;-85
2020/12/06 07:17:57;;;;;;;9.40;5.33;;;;;;;9.77;73.27;96243.77;1734388;83;21622;-85
2020/12/06 07:20:27;;;;;;;14.10;7.50;;;;;;;10.19;72.78;96243.00;1734052;81;21164;-85
2020/12/06 07:22:56;;;;;;;8.13;5.22;;;;;;;10.47;71.62;96240.02;1734370;82;21103;-85
2020/12/06 07:25:25;;;;;;;7.87;5.62;;;;;;;10.67;71.14;96247.67;1734206;83;21138;-85
2020/12/06 07:27:52;;;;;;;13.80;7.78;;;;;;;11.05;70.83;96245.00;1734143;83;21146;-85
2020/12/06 07:30:21;;;;;;;9.38;6.97;;;;;;;11.08;69.44;96241.76;1734124;81;21495;-85
2020/12/06 07:32:48;;;;;;;10.35;6.85;;;;;;;11.23;69.63;96244.70;1734101;83;21107;-85
2020/12/06 07:35:18;;;;;;;10.48;6.83;;;;;;;11.44;68.64;96252.58;1734285;83;21137;-85
2020/12/06 07:37:45;;;;;;;10.65;6.67;;;;;;;11.37;68.28;96253.48;1734407;83;21617;-85
2020/12/06 07:40:13;;;;;;;9.60;6.55;;;;;;;11.33;68.26;96247.19;1734175;81;21280;-85
2020/12/06 07:42:40;;;;;;;11.33;6.85;;;;;;;11.47;68.32;96237.39;1734071;82;21134;-85
2020/12/06 07:45:08;;;;;;;9.93;6.42;;;;;;;11.73;67.99;96237.73;1734099;82;21107;-85
2020/12/06 07:47:36;;;;;;;13.38;7.03;;;;;;;11.85;67.49;96242.05;1734087;82;21107;-85
2020/12/06 07:50:06;;;;;;;9.78;6.62;;;;;;;12.08;67.22;96240.80;1734165;81;21273;-85
2020/12/06 07:52:38;;;;;;;9.38;6.15;;;;;;;12.19;67.22;96238.19;1734058;83;21184;-85
2020/12/06 07:55:10;;;;;;;9.60;7.12;;;;;;;12.32;65.71;96240.04;1734157;83;21099;-85
2020/12/06 07:57:57;;;;;;;11.30;7.22;;;;;;;12.09;65.57;96243.16;1734065;83;21163;-86
2020/12/06 08:00:37;;;;;;;10.72;7.60;;;;;;;12.12;66.11;96231.95;1734090;81;21196;-85
2020/12/06 08:03:07;;;;;;;10.98;8.00;;;;;;;12.26;65.38;96231.16;1734302;82;21119;-85
2020/12/06 08:05:38;;;;;;;11.60;7.78;;;;;;;12.13;65.14;96236.73;1734293;82;21330;-85
2020/12/06 08:08:16;;;;;;;13.95;7.58;;;;;;;11.97;64.45;96238.12;1734269;82;21482;-85
2020/12/06 08:10:52;;;;;;;12.90;8.83;;;;;;;11.77;64.88;96243.23;1734142;81;21314;-86
2020/12/06 08:13:19;;;;;;;10.50;7.15;;;;;;;11.78;65.64;96236.29;1734219;82;21150;-85
2020/12/06 08:15:46;;;;;;;11.03;7.03;;;;;;;11.75;65.37;96240.88;1734145;83;21284;-85
2020/12/06 08:18:18;;;;;;;10.23;7.05;;;;;;;11.62;65.69;96240.31;1734308;83;21273;-86
2020/12/06 08:20:55;;;;;;;11.70;7.87;;;;;;;11.58;65.97;96239.34;1734159;81;21289;-85
2020/12/06 08:23:37;;;;;;;10.60;7.42;;;;;;;11.46;65.64;96241.13;1734602;83;21156;-85
2020/12/06 08:26:05;;;;;;;9.65;6.75;;;;;;;11.34;65.83;96241.34;1734326;83;21582;-84
2020/12/06 08:28:33;;;;;;;14.68;8.48;;;;;;;11.09;65.29;96243.33;1734270;82;21150;-84
2020/12/06 08:31:01;;;;;;;10.05;6.87;;;;;;;10.76;65.55;96245.17;1734259;81;21281;-84
2020/12/06 08:33:29;;;;;;;10.35;6.40;;;;;;;10.56;65.90;96245.48;1734307;82;21633;-84
2020/12/06 08:35:57;;;;;;;8.23;6.28;;;;;;;10.42;65.94;96243.28;1734128;83;21621;-84
2020/12/06 08:38:30;;;;;;;15.75;9.18;;;;;;;10.33;66.28;96243.91;1734257;83;21126;-84
2020/12/06 08:41:08;;;;;;;13.00;9.15;;;;;;;10.32;67.08;96243.66;1734213;81;21310;-84
2020/12/06 08:43:51;;;;;;;14.98;10.15;;;;;;;10.08;66.33;96246.84;1734391;83;21127;-84
2020/12/06 08:46:21;;;;;;;14.80;10.20;;;;;;;9.89;66.80;96249.99;1734214;83;21428;-84
2020/12/06 08:48:52;;;;;;;16.07;10.23;;;;;;;9.85;67.12;96253.72;1734536;83;21122;-84
2020/12/06 08:51:36;;;;;;;16.10;9.88;;;;;;;9.89;67.51;96244.16;1734430;81;21302;-84
2020/12/06 08:54:09;;;;;;;16.73;9.60;;;;;;;9.97;67.85;96236.90;1734242;82;21148;-85
2020/12/06 08:56:39;;;;;;;12.82;8.33;;;;;;;10.10;67.99;96238.86;1734193;82;21114;-85
2020/12/06 08:59:17;;;;;;;13.98;9.73;;;;;;;10.14;67.85;96236.45;1734878;83;21118;-85
2020/12/06 09:01:55;;;;;;;16.52;9.85;;;;;;;10.22;68.22;96232.40;1734213;83;21123;-85
2020/12/06 09:04:24;;;;;;;17.05;10.53;;;;;;;10.35;68.30;96228.52;1734211;83;21119;-84
2020/12/06 09:06:53;;;;;;;17.10;10.70;;;;;;;10.50;68.50;96228.84;1734158;83;21134;-85
2020/12/06 09:09:21;;;;;;;15.95;9.30;;;;;;;10.57;67.78;96227.17;1734769;81;21142;-85
2020/12/06 09:11:54;;;;;;;11.63;7.92;;;;;;;10.61;68.16;96218.89;1734074;83;21166;-85
2020/12/06 09:14:25;;;;;;;11.83;7.40;;;;;;;10.78;68.24;96217.05;1734164;82;21154;-85
2020/12/06 09:16:52;;;;;;;12.13;7.62;;;;;;;11.04;68.22;96216.90;1734284;83;21115;-85
2020/12/06 09:19:20;;;;;;;9.78;6.50;;;;;;;11.22;67.93;96209.42;1734146;81;21134;-85
2020/12/06 09:21:47;;;;;;;9.18;6.12;;;;;;;11.37;67.75;96208.91;1734252;83;21253;-85
2020/12/06 09:24:15;;;;;;;11.85;7.50;;;;;;;11.53;67.62;96205.68;1734169;83;21276;-85
2020/12/06 09:26:42;;;;;;;10.35;6.47;;;;;;;11.65;67.30;96193.25;1734309;82;21344;-85
2020/12/06 09:29:09;;;;;;;9.08;6.12;;;;;;;11.80;67.34;96196.97;1734282;83;21648;-85
2020/12/06 09:31:36;;;;;;;10.40;6.65;;;;;;;11.95;67.09;96197.75;1734319;81;21154;-85
2020/12/06 09:34:03;;;;;;;9.18;6.47;;;;;;;12.08;66.80;96192.42;1734367;83;21151;-85
2020/12/06 09:36:30;;;;;;;8.60;5.65;;;;;;;12.21;66.65;96187.39;1734314;83;21305;-85
2020/12/06 09:38:57;;;;;;;8.03;5.37;;;;;;;12.32;66.28;96186.09;1734215;83;21142;-85
2020/12/06 09:41:24;;;;;;;5.92;4.45;;;;;;;12.40;66.09;96192.05;1734389;81;21143;-85
2020/12/06 09:43:51;;;;;;;5.62;4.40;;;;;;;12.48;65.77;96184.13;1734216;83;21141;-85
2020/12/06 09:46:18;;;;;;;6.58;4.22;;;;;;;12.58;64.02;96173.02;1734132;83;21147;-86
2020/12/06 09:48:45;;;;;;;5.70;4.03;;;;;;;12.58;62.03;96166.38;1734213;83;21280;-85
2020/12/06 09:51:12;;;;;;;8.68;4.40;;;;;;;12.53;61.27;96163.81;1734267;81;21139;-85
2020/12/06 09:53:40;;;;;;;6.35;4.42;;;;;;;12.61;62.21;96165.22;1734104;82;21147;-85
2020/12/06 09:56:08;;;;;;;7.33;4.22;;;;;;;12.67;60.51;96168.56;1734500;82;21142;-85
2020/12/06 09:58:36;;;;;;;7.53;4.20;;;;;;;12.59;58.84;96162.08;1734158;83;21551;-85
2020/12/06 10:01:03;;;;;;;8.33;4.58;;;;;;;12.57;58.57;96163.48;1734143;81;21164;-85
2020/12/06 10:03:30;;;;;;;6.33;4.08;;;;;;;12.61;59.29;96161.78;1734212;82;21656;-85
2020/12/06 10:05:57;;;;;;;6.87;4.40;;;;;;;12.73;59.33;96166.02;1734237;82;21625;-85
2020/12/06 10:08:24;;;;;;;7.60;4.08;;;;;;;12.74;58.85;96161.72;1734146;82;21146;-85
2020/12/06 10:10:52;;;;;;;4.60;3.77;;;;;;;12.68;57.92;96155.51;1734318;81;21165;-85
2020/12/06 10:13:19;;;;;;;5.95;4.03;;;;;;;12.68;57.98;96154.97;1734176;83;21664;-85
2020/12/06 10:15:46;;;;;;;7.35;4.20;;;;;;;12.70;58.64;96154.66;1734387;83;21135;-85
2020/12/06 10:18:13;;;;;;;6.10;4.00;;;;;;;12.78;59.05;96149.38;1734177;83;21228;-85
2020/12/06 10:20:40;;;;;;;6.90;4.15;;;;;;;12.86;58.90;96153.75;1734481;81;21242;-85
2020/12/06 10:23:07;;;;;;;7.67;4.45;;;;;;;12.85;58.95;96146.31;1734113;83;21130;-85
2020/12/06 10:25:34;;;;;;;5.80;3.98;;;;;;;12.84;58.88;96139.42;1734152;82;21127;-85
2020/12/06 10:28:01;;;;;;;5.67;3.87;;;;;;;12.86;57.41;96127.92;1734149;83;21159;-85
2020/12/06 10:30:28;;;;;;;4.83;3.67;;;;;;;12.83;58.16;96137.85;1734352;81;21269;-86
2020/12/06 10:32:55;;;;;;;6.42;3.90;;;;;;;12.94;58.28;96128.50;1734111;82;21095;-85
2020/12/06 10:35:23;;;;;;;5.10;3.50;;;;;;;13.05;58.33;96131.70;1734388;83;21296;-85
2020/12/06 10:37:50;;;;;;;5.95;3.52;;;;;;;13.11;56.94;96134.49;1734193;83;21153;-85
2020/12/06 10:40:17;;;;;;;5.30;4.05;;;;;;;13.11;56.58;96137.70;1734317;81;21185;-86
2020/12/06 10:42:48;;;;;;;5.83;4.00;;;;;;;13.15;57.51;96129.34;1734532;82;21494;-85
2020/12/06 10:45:15;;;;;;;;;;;;;;;13.26;57.89;96132.79;1736781;82;21147;-86
2020/12/06 10:47:44;;;;;;;5.62;3.50;;;;;;;13.37;57.51;96131.95;1734615;82;20142;-85
2020/12/06 10:50:12;;;;;;;5.75;3.98;;;;;;;13.36;57.76;96122.39;1734430;81;21285;-85
2020/12/06 10:52:40;;;;;;;4.37;3.22;;;;;;;13.24;57.78;96132.31;1733837;83;21269;-85
2020/12/06 10:55:07;;;;;;;4.40;3.47;;;;;;;13.28;57.58;96125.83;1734084;82;21518;-85
2020/12/06 10:57:34;;;;;;;5.40;4.03;;;;;;;13.21;56.04;96127.58;1734078;83;21151;-85
2020/12/06 11:00:01;;;;;;;5.08;3.47;;;;;;;13.00;55.90;96123.31;1734272;81;21326;-85
2020/12/06 11:02:28;;;;;;;4.78;3.55;;;;;;;13.00;56.33;96119.87;1734100;83;21135;-85
2020/12/06 11:04:55;;;;;;;5.70;3.72;;;;;;;13.10;56.64;96128.14;1734204;82;21485;-85
2020/12/06 11:07:23;;;;;;;3.90;3.15;;;;;;;13.24;57.04;96126.20;1734214;83;21651;-85
2020/12/06 11:09:50;;;;;;;6.47;3.60;;;;;;;13.24;54.77;96131.53;1734096;81;21189;-86
2020/12/06 11:12:17;;;;;;;5.33;3.42;;;;;;;13.15;54.57;96128.00;1734101;83;21301;-85
2020/12/06 11:14:44;;;;;;;4.47;2.98;;;;;;;13.07;54.40;96119.66;1734112;83;21193;-85
2020/12/06 11:17:11;;;;;;;4.47;3.37;;;;;;;13.10;54.99;96120.16;1734255;83;21147;-85
2020/12/06 11:19:38;;;;;;;4.37;3.05;;;;;;;13.05;53.84;96113.86;1734156;81;21139;-86
2020/12/06 11:22:05;;;;;;;5.40;3.55;;;;;;;13.05;53.18;96115.19;1734189;82;21130;-85
2020/12/06 11:24:34;;;;;;;4.90;3.35;;;;;;;13.12;54.24;96100.13;1734129;83;21151;-86
2020/12/06 11:27:01;;;;;;;3.75;3.35;;;;;;;13.30;55.20;96101.02;1734172;82;21510;-85
2020/12/06 11:29:28;;;;;;;5.40;3.60;;;;;;;13.48;54.89;96099.19;1734320;81;21470;-85
2020/12/06 11:31:55;;;;;;;5.50;3.05;;;;;;;13.62;55.46;96098.52;1734134;83;21165;-85
2020/12/06 11:34:22;;;;;;;4.97;3.20;;;;;;;13.76;55.13;96093.85;1734075;83;21232;-86
2020/12/06 11:36:50;;;;;;;4.12;3.05;;;;;;;13.94;55.41;96092.80;1734523;82;21278;-85
2020/12/06 11:39:17;;;;;;;4.33;3.15;;;;;;;14.11;55.31;96096.58;1734303;83;21131;-86
2020/12/06 11:41:44;;;;;;;4.83;3.20;;;;;;;14.19;54.55;96092.56;1734473;83;21615;-85
2020/12/06 11:44:11;;;;;;;2.90;2.52;;;;;;;14.28;54.37;96099.24;1734202;82;21150;-86